createdAt,value
2023-01-13T00:00:18.821Z,936.18
2023-01-13T00:01:19.350Z,936.08
2023-01-13T00:02:19.549Z,936.04
2023-01-13T00:03:20.357Z,935.98
2023-01-13T00:04:21.395Z,935.97
2023-01-13T00:05:22.344Z,936.02
2023-01-13T00:06:23.067Z,936.04
2023-01-13T00:07:23.201Z,936.04
2023-01-13T00:08:24.019Z,936
2023-01-13T00:09:25.082Z,936.03
2023-01-13T00:10:26.085Z,935.97
2023-01-13T00:11:26.785Z,935.96
2023-01-13T00:12:27.038Z,936.06
2023-01-13T00:13:28.101Z,936.07
2023-01-13T00:14:28.504Z,936.05
2023-01-13T00:15:28.885Z,935.96
2023-01-13T00:16:29.725Z,935.96
2023-01-13T00:17:30.710Z,936
2023-01-13T00:18:31.088Z,935.99
2023-01-13T00:19:31.782Z,935.99
2023-01-13T00:20:32.159Z,935.92
2023-01-13T00:21:32.510Z,935.95
2023-01-13T00:22:32.794Z,935.89
2023-01-13T00:23:33.495Z,935.91
2023-01-13T00:24:34.162Z,935.93
2023-01-13T00:25:34.933Z,935.87
2023-01-13T00:26:35.987Z,935.97
2023-01-13T00:27:37.001Z,936.03
2023-01-13T00:28:37.078Z,936.03
2023-01-13T00:29:38.053Z,936.13
2023-01-13T00:30:38.428Z,936.12
2023-01-13T00:31:39.209Z,936.03
2023-01-13T00:32:39.891Z,935.9
2023-01-13T00:33:40.686Z,935.89
2023-01-13T00:34:41.076Z,935.9
2023-01-13T00:35:42.122Z,935.92
2023-01-13T00:36:43.093Z,935.94
2023-01-13T00:37:43.535Z,935.91
2023-01-13T00:38:43.902Z,935.94
2023-01-13T00:39:44.404Z,935.84
2023-01-13T00:40:44.771Z,935.83
2023-01-13T00:41:45.860Z,935.84
2023-01-13T00:42:46.895Z,935.88
2023-01-13T00:43:47.969Z,935.87
2023-01-13T00:44:49.015Z,935.85
2023-01-13T00:45:50.028Z,935.86
2023-01-13T00:46:50.672Z,935.9
2023-01-13T00:47:51.335Z,935.88
2023-01-13T00:48:52.020Z,935.86
2023-01-13T00:49:53.001Z,935.9
2023-01-13T00:50:53.734Z,935.88
2023-01-13T00:51:54.400Z,935.88
2023-01-13T00:52:55.209Z,935.91
2023-01-13T00:53:56.269Z,935.86
2023-01-13T00:54:56.641Z,935.86
2023-01-13T00:55:57.486Z,935.92
2023-01-13T00:56:58.268Z,935.98
2023-01-13T00:57:58.616Z,935.98
2023-01-13T00:58:59.671Z,936.01
2023-01-13T01:00:00.368Z,936
2023-01-13T01:01:01.548Z,935.87
2023-01-13T01:02:02.355Z,935.91
2023-01-13T01:03:02.888Z,935.94
2023-01-13T01:04:03.531Z,936.03
2023-01-13T01:05:03.922Z,935.98
2023-01-13T01:06:04.978Z,935.95
2023-01-13T01:07:05.388Z,935.9
2023-01-13T01:08:06.065Z,936
2023-01-13T01:09:06.432Z,935.96
2023-01-13T01:10:07.131Z,935.94
2023-01-13T01:11:08.093Z,935.93
2023-01-13T01:12:08.817Z,935.89
2023-01-13T01:13:09.475Z,935.98
2023-01-13T01:14:10.244Z,936.11
2023-01-13T01:15:10.605Z,936.12
2023-01-13T01:16:11.671Z,936.02
2023-01-13T01:17:11.797Z,935.92
2023-01-13T01:18:12.586Z,935.89
2023-01-13T01:19:13.414Z,935.97
2023-01-13T01:20:14.169Z,935.98
2023-01-13T01:21:14.865Z,936.04
2023-01-13T01:22:15.632Z,936
2023-01-13T01:23:16.305Z,935.72
2023-01-13T01:24:16.734Z,935.74
2023-01-13T01:25:17.150Z,935.9
2023-01-13T01:26:17.268Z,935.95
2023-01-13T01:27:17.956Z,935.91
2023-01-13T01:28:18.292Z,935.84
2023-01-13T01:29:18.434Z,935.61
2023-01-13T01:30:19.097Z,935.66
2023-01-13T01:31:19.995Z,935.84
2023-01-13T01:32:20.233Z,935.81
2023-01-13T01:33:20.913Z,935.78
2023-01-13T01:34:21.625Z,935.63
2023-01-13T01:35:22.288Z,935.61
2023-01-13T01:36:22.980Z,935.69
2023-01-13T01:37:23.967Z,935.79
2023-01-13T01:38:24.357Z,935.76
2023-01-13T01:39:25.332Z,935.71
2023-01-13T01:40:26.029Z,935.69
2023-01-13T01:41:26.144Z,935.7
2023-01-13T01:42:26.572Z,935.67
2023-01-13T01:43:26.851Z,935.64
2023-01-13T01:44:27.928Z,935.67
2023-01-13T01:45:28.880Z,935.83
2023-01-13T01:46:29.608Z,935.81
2023-01-13T01:47:30.048Z,935.78
2023-01-13T01:48:30.739Z,935.61
2023-01-13T01:49:31.416Z,935.68
2023-01-13T01:50:31.793Z,935.81
2023-01-13T01:51:32.489Z,935.72
2023-01-13T01:52:32.842Z,935.71
2023-01-13T01:53:33.783Z,935.65
2023-01-13T01:54:34.119Z,935.51
2023-01-13T01:55:34.914Z,935.6
2023-01-13T01:56:35.925Z,935.62
2023-01-13T01:57:36.330Z,935.62
2023-01-13T01:58:36.735Z,935.64
2023-01-13T01:59:37.501Z,935.62
2023-01-13T02:00:38.278Z,935.55
2023-01-13T02:01:38.439Z,935.44
2023-01-13T02:02:38.613Z,935.47
2023-01-13T02:03:39.474Z,935.54
2023-01-13T02:04:40.565Z,935.5
2023-01-13T02:05:41.631Z,935.36
2023-01-13T02:06:42.322Z,935.4
2023-01-13T02:07:43.028Z,935.46
2023-01-13T02:08:44.081Z,935.43
2023-01-13T02:09:45.112Z,935.35
2023-01-13T02:10:46.100Z,935.3
2023-01-13T02:11:46.800Z,935.36
2023-01-13T02:12:47.904Z,935.34
2023-01-13T02:13:48.593Z,935.32
2023-01-13T02:14:49.326Z,935.23
2023-01-13T02:15:50.004Z,935.21
2023-01-13T02:16:50.476Z,935.11
2023-01-13T02:17:50.901Z,935.12
2023-01-13T02:18:51.416Z,935.26
2023-01-13T02:19:52.374Z,935.23
2023-01-13T02:20:53.415Z,935.23
2023-01-13T02:21:54.462Z,935.2
2023-01-13T02:22:54.861Z,935.04
2023-01-13T02:23:55.889Z,935.06
2023-01-13T02:24:56.641Z,935.19
2023-01-13T02:25:57.175Z,935.15
2023-01-13T02:26:57.466Z,935.03
2023-01-13T02:27:58.158Z,935.03
2023-01-13T02:28:58.630Z,935.05
2023-01-13T02:29:59.700Z,935.04
2023-01-13T02:31:00.424Z,935.11
2023-01-13T02:32:01.254Z,935.12
2023-01-13T02:33:01.616Z,934.93
2023-01-13T02:34:02.067Z,934.9
2023-01-13T02:35:02.819Z,934.96
2023-01-13T02:36:03.131Z,935.05
2023-01-13T02:37:03.225Z,935.16
2023-01-13T02:38:04.230Z,935.13
2023-01-13T02:39:05.301Z,934.95
2023-01-13T02:40:06.335Z,935.09
2023-01-13T02:41:07.293Z,935.01
2023-01-13T02:42:07.649Z,934.84
2023-01-13T02:43:07.885Z,934.87
2023-01-13T02:44:08.859Z,934.95
2023-01-13T02:45:09.902Z,935
2023-01-13T02:46:10.462Z,934.95
2023-01-13T02:47:10.891Z,934.88
2023-01-13T02:48:11.958Z,934.94
2023-01-13T02:49:12.367Z,934.87
2023-01-13T02:50:13.049Z,934.92
2023-01-13T02:51:13.724Z,934.93
2023-01-13T02:52:14.711Z,934.9
2023-01-13T02:53:15.723Z,934.84
2023-01-13T02:54:16.078Z,934.88
2023-01-13T02:55:17.136Z,934.94
2023-01-13T02:56:17.846Z,934.86
2023-01-13T02:57:18.241Z,934.79
2023-01-13T02:58:18.622Z,934.75
2023-01-13T02:59:19.596Z,934.98
2023-01-13T03:00:20.499Z,934.81
2023-01-13T03:01:21.554Z,934.7
2023-01-13T03:02:21.704Z,934.67
2023-01-13T03:03:22.469Z,934.76
2023-01-13T03:04:23.529Z,934.77
2023-01-13T03:05:24.182Z,934.62
2023-01-13T03:06:24.400Z,934.59
2023-01-13T03:07:25.351Z,934.61
2023-01-13T03:08:25.714Z,934.72
2023-01-13T03:09:26.627Z,934.76
2023-01-13T03:10:27.547Z,934.72
2023-01-13T03:11:28.197Z,934.62
2023-01-13T03:12:28.900Z,934.64
2023-01-13T03:13:29.841Z,934.56
2023-01-13T03:14:30.295Z,934.62
2023-01-13T03:15:30.878Z,934.68
2023-01-13T03:16:31.150Z,934.66
2023-01-13T03:17:31.414Z,934.65
2023-01-13T03:18:32.385Z,934.61
2023-01-13T03:19:32.593Z,934.62
2023-01-13T03:20:32.818Z,934.57
2023-01-13T03:21:33.018Z,934.5
2023-01-13T03:22:33.648Z,934.42
2023-01-13T03:23:34.614Z,934.52
2023-01-13T03:24:35.370Z,934.53
2023-01-13T03:25:35.595Z,934.52
2023-01-13T03:26:36.527Z,934.51
2023-01-13T03:27:36.737Z,934.5
2023-01-13T03:28:37.718Z,934.47
2023-01-13T03:29:37.907Z,934.43
2023-01-13T03:30:38.543Z,934.51
2023-01-13T03:31:38.962Z,934.54
2023-01-13T03:32:39.894Z,934.51
2023-01-13T03:33:40.395Z,934.48
2023-01-13T03:34:40.592Z,934.55
2023-01-13T03:35:40.812Z,934.46
2023-01-13T03:36:41.041Z,934.52
2023-01-13T03:37:41.249Z,934.54
2023-01-13T03:38:42.187Z,934.54
2023-01-13T03:39:43.120Z,934.5
2023-01-13T03:40:43.344Z,934.49
2023-01-13T03:41:43.554Z,934.59
2023-01-13T03:42:44.509Z,934.68
2023-01-13T03:43:45.494Z,934.63
2023-01-13T03:44:46.119Z,934.62
2023-01-13T03:45:46.771Z,934.6
2023-01-13T03:46:47.470Z,934.57
2023-01-13T03:47:48.438Z,934.66
2023-01-13T03:48:48.717Z,934.68
2023-01-13T03:49:49.354Z,934.63
2023-01-13T03:50:50.278Z,934.57
2023-01-13T03:51:50.902Z,934.57
2023-01-13T03:52:51.524Z,934.58
2023-01-13T03:53:52.018Z,934.59
2023-01-13T03:54:53.046Z,934.6
2023-01-13T03:55:54.038Z,934.55
2023-01-13T03:56:54.951Z,934.57
2023-01-13T03:57:55.641Z,934.62
2023-01-13T03:58:56.195Z,934.52
2023-01-13T03:59:56.402Z,934.48
2023-01-13T04:00:57.170Z,934.51
2023-01-13T04:01:58.243Z,934.53
2023-01-13T04:02:58.530Z,934.52
2023-01-13T04:03:59.560Z,934.48
2023-01-13T04:04:59.882Z,934.46
2023-01-13T04:06:00.812Z,934.44
2023-01-13T04:07:01.379Z,934.49
2023-01-13T04:08:01.720Z,934.43
2023-01-13T04:09:01.911Z,934.55
2023-01-13T04:10:02.378Z,934.59
2023-01-13T04:11:02.620Z,934.57
2023-01-13T04:12:03.485Z,934.61
2023-01-13T04:13:03.683Z,934.61
2023-01-13T04:14:03.905Z,934.66
2023-01-13T04:15:04.887Z,934.77
2023-01-13T04:16:05.215Z,934.67
2023-01-13T04:17:05.631Z,934.65
2023-01-13T04:18:06.570Z,934.75
2023-01-13T04:19:07.097Z,934.72
2023-01-13T04:20:08.032Z,934.62
2023-01-13T04:21:08.695Z,934.64
2023-01-13T04:22:09.071Z,934.65
2023-01-13T04:23:09.282Z,934.66
2023-01-13T04:24:09.518Z,934.54
2023-01-13T04:25:10.155Z,934.48
2023-01-13T04:26:10.660Z,934.45
2023-01-13T04:27:11.599Z,934.53
2023-01-13T04:28:12.532Z,934.44
2023-01-13T04:29:15.486Z,934.49
2023-01-13T04:30:13.864Z,934.45
2023-01-13T04:31:14.169Z,934.46
2023-01-13T04:32:14.531Z,934.48
2023-01-13T04:33:15.443Z,934.5
2023-01-13T04:34:15.985Z,934.43
2023-01-13T04:35:16.205Z,934.4
2023-01-13T04:36:16.456Z,934.36
2023-01-13T04:37:17.152Z,934.4
2023-01-13T04:38:17.419Z,934.38
2023-01-13T04:39:17.642Z,934.39
2023-01-13T04:40:17.877Z,934.38
2023-01-13T04:41:18.097Z,934.35
2023-01-13T04:42:18.300Z,934.38
2023-01-13T04:43:19.231Z,934.38
2023-01-13T04:44:19.919Z,934.35
2023-01-13T04:45:20.557Z,934.3
2023-01-13T04:46:21.255Z,934.35
2023-01-13T04:47:22.011Z,934.35
2023-01-13T04:48:22.226Z,934.31
2023-01-13T04:49:22.577Z,934.28
2023-01-13T04:50:22.874Z,934.28
2023-01-13T04:51:23.441Z,934.27
2023-01-13T04:52:24.120Z,934.21
2023-01-13T04:53:25.062Z,934.18
2023-01-13T04:54:25.711Z,934.12
2023-01-13T04:55:26.299Z,934.16
2023-01-13T04:56:26.960Z,934.13
2023-01-13T04:57:27.601Z,934.15
2023-01-13T04:58:27.808Z,934.15
2023-01-13T04:59:28.199Z,934.14
2023-01-13T05:00:28.879Z,934.18
2023-01-13T05:01:29.540Z,934.1
2023-01-13T05:02:29.909Z,934.09
2023-01-13T05:03:30.569Z,934.1
2023-01-13T05:04:30.797Z,934.07
2023-01-13T05:05:31.720Z,934.09
2023-01-13T05:06:32.082Z,934.06
2023-01-13T05:07:32.713Z,934.1
2023-01-13T05:08:33.378Z,934.14
2023-01-13T05:09:33.615Z,934.14
2023-01-13T05:10:34.551Z,934.13
2023-01-13T05:11:35.506Z,934.14
2023-01-13T05:12:35.723Z,934.14
2023-01-13T05:13:36.364Z,934.2
2023-01-13T05:14:37.031Z,934.16
2023-01-13T05:15:37.540Z,934.16
2023-01-13T05:16:38.196Z,934.07
2023-01-13T05:17:38.694Z,934.08
2023-01-13T05:18:39.665Z,934.1
2023-01-13T05:19:40.311Z,934.12
2023-01-13T05:20:40.966Z,934.05
2023-01-13T05:21:41.908Z,934.02
2023-01-13T05:22:42.533Z,933.99
2023-01-13T05:23:43.042Z,933.97
2023-01-13T05:24:43.704Z,933.97
2023-01-13T05:25:44.436Z,933.96
2023-01-13T05:26:44.012Z,933.97
2023-01-13T05:27:44.940Z,933.95
2023-01-13T05:28:45.578Z,934
2023-01-13T05:29:46.514Z,933.96
2023-01-13T05:30:46.785Z,933.96
2023-01-13T05:31:47.688Z,933.93
2023-01-13T05:32:48.027Z,933.95
2023-01-13T05:33:48.545Z,933.94
2023-01-13T05:34:49.527Z,933.83
2023-01-13T05:35:50.275Z,933.82
2023-01-13T05:36:50.487Z,933.74
2023-01-13T05:37:51.116Z,933.76
2023-01-13T05:38:51.759Z,933.74
2023-01-13T05:39:51.988Z,933.73
2023-01-13T05:40:52.206Z,933.77
2023-01-13T05:41:53.122Z,933.8
2023-01-13T05:42:53.312Z,933.75
2023-01-13T05:43:53.500Z,933.76
2023-01-13T05:44:53.735Z,933.8
2023-01-13T05:45:54.350Z,933.81
2023-01-13T05:46:55.354Z,933.9
2023-01-13T05:47:55.576Z,933.93
2023-01-13T05:48:56.512Z,933.96
2023-01-13T05:49:57.049Z,933.96
2023-01-13T05:50:57.703Z,933.92
2023-01-13T05:51:58.417Z,933.9
2023-01-13T05:52:59.335Z,933.97
2023-01-13T05:53:59.693Z,934.01
2023-01-13T05:55:00.609Z,934
2023-01-13T05:56:00.914Z,934.01
2023-01-13T05:57:01.113Z,933.99
2023-01-13T05:58:02.012Z,934.01
2023-01-13T05:59:02.947Z,933.96
2023-01-13T06:00:03.948Z,933.95
2023-01-13T06:01:04.645Z,933.9
2023-01-13T06:02:05.600Z,933.91
2023-01-13T06:03:06.330Z,933.91
2023-01-13T06:04:06.687Z,933.93
2023-01-13T06:05:06.885Z,933.91
2023-01-13T06:06:07.507Z,933.91
2023-01-13T06:07:07.720Z,933.89
2023-01-13T06:08:07.950Z,933.86
2023-01-13T06:09:08.584Z,933.85
2023-01-13T06:10:09.508Z,933.9
2023-01-13T06:11:10.453Z,933.91
2023-01-13T06:12:11.397Z,933.93
2023-01-13T06:13:12.314Z,933.89
2023-01-13T06:14:12.531Z,933.92
2023-01-13T06:15:13.539Z,933.9
2023-01-13T06:16:14.007Z,933.91
2023-01-13T06:17:14.541Z,933.92
2023-01-13T06:18:15.031Z,933.94
2023-01-13T06:19:15.958Z,933.9
2023-01-13T06:20:16.482Z,933.84
2023-01-13T06:21:17.338Z,933.85
2023-01-13T06:22:17.983Z,933.84
2023-01-13T06:23:18.490Z,933.84
2023-01-13T06:24:19.481Z,933.86
2023-01-13T06:25:20.409Z,933.84
2023-01-13T06:26:21.249Z,933.82
2023-01-13T06:27:21.620Z,933.85
2023-01-13T06:28:21.849Z,933.81
2023-01-13T06:29:22.503Z,933.88
2023-01-13T06:30:23.583Z,933.86
2023-01-13T06:31:23.830Z,933.88
2023-01-13T06:32:24.751Z,933.89
2023-01-13T06:33:25.781Z,933.87
2023-01-13T06:34:25.989Z,933.9
2023-01-13T06:35:26.923Z,933.92
2023-01-13T06:36:27.664Z,933.92
2023-01-13T06:37:28.324Z,933.94
2023-01-13T06:38:29.242Z,934.01
2023-01-13T06:39:29.738Z,933.95
2023-01-13T06:40:30.677Z,934.04
2023-01-13T06:41:30.926Z,934
2023-01-13T06:42:31.170Z,933.98
2023-01-13T06:43:31.812Z,934
2023-01-13T06:44:32.781Z,934.02
2023-01-13T06:45:33.429Z,934.05
2023-01-13T06:46:33.641Z,934
2023-01-13T06:47:34.290Z,934.05
2023-01-13T06:48:35.515Z,934.02
2023-01-13T06:49:35.493Z,934.02
2023-01-13T06:50:35.725Z,934.01
2023-01-13T06:51:36.659Z,933.93
2023-01-13T06:52:36.904Z,933.94
2023-01-13T06:53:37.119Z,933.91
2023-01-13T06:54:38.031Z,933.97
2023-01-13T06:55:38.242Z,934.01
2023-01-13T06:56:38.981Z,934.01
2023-01-13T06:57:39.175Z,934.02
2023-01-13T06:58:40.156Z,934.01
2023-01-13T06:59:40.507Z,934.06
2023-01-13T07:00:40.775Z,934.08
2023-01-13T07:01:41.796Z,934.08
2023-01-13T07:02:42.762Z,934.12
2023-01-13T07:03:43.154Z,934.15
2023-01-13T07:04:43.688Z,934.16
2023-01-13T07:05:44.627Z,934.18
2023-01-13T07:06:45.366Z,934.15
2023-01-13T07:07:46.019Z,934.06
2023-01-13T07:08:46.696Z,934.1
2023-01-13T07:09:47.068Z,934.13
2023-01-13T07:10:47.277Z,934.13
2023-01-13T07:11:47.387Z,934.1
2023-01-13T07:12:48.338Z,934.12
2023-01-13T07:13:48.969Z,934.15
2023-01-13T07:14:49.178Z,934.16
2023-01-13T07:15:49.692Z,934.23
2023-01-13T07:16:50.547Z,934.2
2023-01-13T07:17:51.169Z,934.17
2023-01-13T07:18:52.107Z,934.14
2023-01-13T07:19:52.622Z,934.18
2023-01-13T07:20:52.845Z,934.15
2023-01-13T07:21:53.818Z,934.09
2023-01-13T07:22:54.757Z,934.13
2023-01-13T07:23:55.415Z,934.2
2023-01-13T07:24:56.367Z,934.2
2023-01-13T07:25:56.915Z,934.26
2023-01-13T07:26:57.286Z,934.32
2023-01-13T07:27:58.240Z,934.31
2023-01-13T07:28:59.325Z,934.32
2023-01-13T07:29:59.533Z,934.32
2023-01-13T07:30:59.816Z,934.27
2023-01-13T07:32:00.238Z,934.29
2023-01-13T07:33:00.989Z,934.29
2023-01-13T07:34:01.635Z,934.26
2023-01-13T07:35:02.579Z,934.25
2023-01-13T07:36:02.795Z,934.23
2023-01-13T07:37:03.208Z,934.19
2023-01-13T07:38:03.735Z,934.23
2023-01-13T07:39:04.241Z,934.22
2023-01-13T07:40:04.764Z,934.23
2023-01-13T07:41:04.966Z,934.25
2023-01-13T07:42:05.897Z,934.24
2023-01-13T07:43:06.558Z,934.2
2023-01-13T07:44:07.295Z,934.16
2023-01-13T07:45:09.379Z,934.19
2023-01-13T07:46:08.742Z,934.2
2023-01-13T07:47:09.236Z,934.24
2023-01-13T07:48:09.895Z,934.31
2023-01-13T07:49:10.399Z,934.32
2023-01-13T07:50:11.337Z,934.27
2023-01-13T07:51:11.591Z,934.34
2023-01-13T07:52:12.560Z,934.34
2023-01-13T07:53:12.757Z,934.31
2023-01-13T07:54:12.984Z,934.35
2023-01-13T07:55:14.035Z,934.36
2023-01-13T07:56:14.251Z,934.36
2023-01-13T07:57:14.991Z,934.44
2023-01-13T07:58:15.200Z,934.42
2023-01-13T07:59:16.158Z,934.44
2023-01-13T08:00:17.115Z,934.42
2023-01-13T08:01:18.329Z,934.43
2023-01-13T08:02:19.269Z,934.4
2023-01-13T08:03:19.734Z,934.39
2023-01-13T08:04:19.954Z,934.41
2023-01-13T08:05:20.881Z,934.44
2023-01-13T08:06:21.213Z,934.44
2023-01-13T08:07:22.296Z,934.45
2023-01-13T08:08:23.218Z,934.49
2023-01-13T08:09:23.471Z,934.5
2023-01-13T08:10:23.713Z,934.54
2023-01-13T08:11:24.381Z,934.54
2023-01-13T08:12:24.580Z,934.53
2023-01-13T08:13:25.051Z,934.52
2023-01-13T08:14:25.849Z,934.63
2023-01-13T08:15:26.762Z,934.65
2023-01-13T08:16:27.262Z,934.64
2023-01-13T08:17:27.344Z,934.66
2023-01-13T08:18:27.951Z,934.65
2023-01-13T08:19:28.452Z,934.69
2023-01-13T08:20:28.944Z,934.68
2023-01-13T08:21:29.167Z,934.63
2023-01-13T08:22:29.825Z,934.58
2023-01-13T08:23:30.804Z,934.54
2023-01-13T08:24:31.755Z,934.53
2023-01-13T08:25:31.989Z,934.59
2023-01-13T08:26:32.215Z,934.59
2023-01-13T08:27:32.884Z,934.58
2023-01-13T08:28:33.483Z,934.59
2023-01-13T08:29:34.180Z,934.57
2023-01-13T08:30:34.887Z,934.61
2023-01-13T08:31:35.911Z,934.62
2023-01-13T08:32:36.631Z,934.63
2023-01-13T08:33:37.230Z,934.62
2023-01-13T08:34:38.259Z,934.65
2023-01-13T08:35:38.470Z,934.66
2023-01-13T08:36:39.415Z,934.65
2023-01-13T08:37:40.000Z,934.67
2023-01-13T08:38:41.037Z,934.65
2023-01-13T08:39:42.086Z,934.66
2023-01-13T08:40:43.054Z,934.65
2023-01-13T08:41:43.732Z,934.67
2023-01-13T08:42:45.940Z,934.62
2023-01-13T08:43:44.784Z,934.64
2023-01-13T08:44:45.163Z,934.62
2023-01-13T08:45:45.414Z,934.65
2023-01-13T08:46:46.230Z,934.63
2023-01-13T08:47:46.906Z,934.64
2023-01-13T08:48:47.587Z,934.58
2023-01-13T08:49:47.812Z,934.59
2023-01-13T08:50:48.819Z,934.53
2023-01-13T08:51:49.390Z,934.5
2023-01-13T08:52:50.303Z,934.43
2023-01-13T08:53:51.264Z,934.4
2023-01-13T08:54:52.342Z,934.45
2023-01-13T08:55:53.315Z,934.44
2023-01-13T08:56:53.614Z,934.44
2023-01-13T08:57:58.194Z,934.45
2023-01-13T08:58:54.777Z,934.49
2023-01-13T08:59:55.287Z,934.51
2023-01-13T09:00:55.950Z,934.61
2023-01-13T09:01:57.033Z,934.69
2023-01-13T09:02:57.290Z,934.78
2023-01-13T09:03:57.980Z,934.79
2023-01-13T09:04:58.460Z,934.81
2023-01-13T09:05:59.281Z,934.79
2023-01-13T09:06:59.566Z,934.8
2023-01-13T09:07:59.980Z,934.76
2023-01-13T09:09:00.535Z,934.71
2023-01-13T09:10:01.060Z,934.71
2023-01-13T09:11:01.996Z,934.7
2023-01-13T09:12:02.944Z,934.69
2023-01-13T09:13:03.875Z,934.7
2023-01-13T09:14:04.803Z,934.69
2023-01-13T09:15:05.843Z,934.71
2023-01-13T09:16:06.830Z,934.71
2023-01-13T09:17:07.583Z,934.74
2023-01-13T09:18:08.348Z,934.79
2023-01-13T09:19:08.958Z,934.87
2023-01-13T09:20:09.930Z,934.91
2023-01-13T09:21:10.438Z,934.89
2023-01-13T09:22:11.138Z,934.82
2023-01-13T09:23:11.667Z,934.85
2023-01-13T09:24:11.965Z,934.89
2023-01-13T09:25:12.506Z,934.96
2023-01-13T09:26:12.819Z,934.98
2023-01-13T09:27:13.355Z,935
2023-01-13T09:28:14.014Z,934.97
2023-01-13T09:29:14.516Z,934.99
2023-01-13T09:30:14.687Z,935
2023-01-13T09:31:15.280Z,935.06
2023-01-13T09:32:16.087Z,935.04
2023-01-13T09:33:16.448Z,935
2023-01-13T09:34:17.224Z,935.02
2023-01-13T09:35:17.492Z,935.01
2023-01-13T09:36:17.769Z,935.03
2023-01-13T09:37:18.635Z,935.03
2023-01-13T09:38:19.050Z,935.04
2023-01-13T09:39:19.475Z,935.1
2023-01-13T09:40:20.134Z,935.18
2023-01-13T09:41:20.719Z,935.21
2023-01-13T09:42:21.007Z,935.23
2023-01-13T09:43:21.294Z,935.23
2023-01-13T09:44:21.808Z,935.26
2023-01-13T09:45:22.824Z,935.29
2023-01-13T09:46:23.104Z,935.27
2023-01-13T09:47:23.773Z,935.22
2023-01-13T09:48:24.151Z,935.22
2023-01-13T09:49:24.510Z,935.19
2023-01-13T09:50:25.560Z,935.26
2023-01-13T09:51:25.800Z,935.21
2023-01-13T09:52:27.119Z,935.2
2023-01-13T09:53:26.890Z,935.22
2023-01-13T09:54:27.387Z,935.23
2023-01-13T09:55:28.014Z,935.26
2023-01-13T09:56:28.242Z,935.31
2023-01-13T09:57:28.517Z,935.29
2023-01-13T09:58:29.573Z,935.25
2023-01-13T09:59:30.519Z,935.12
2023-01-13T10:00:30.764Z,935.14
2023-01-13T10:01:31.483Z,935.1
2023-01-13T10:02:32.481Z,935.07
2023-01-13T10:03:33.083Z,935.04
2023-01-13T10:04:33.246Z,935.01
2023-01-13T10:05:33.397Z,934.91
2023-01-13T10:06:33.667Z,934.94
2023-01-13T10:07:34.206Z,934.85
2023-01-13T10:08:35.231Z,934.88
2023-01-13T10:09:36.173Z,934.82
2023-01-13T10:10:37.115Z,934.72
2023-01-13T10:11:37.344Z,934.67
2023-01-13T10:12:37.846Z,934.69
2023-01-13T10:13:38.072Z,934.67
2023-01-13T10:14:38.335Z,934.71
2023-01-13T10:15:39.300Z,934.61
2023-01-13T10:16:39.452Z,934.59
2023-01-13T10:17:40.437Z,934.55
2023-01-13T10:18:41.324Z,934.53
2023-01-13T10:19:41.647Z,934.55
2023-01-13T10:20:42.156Z,934.54
2023-01-13T10:21:42.822Z,934.52
2023-01-13T10:22:43.773Z,934.51
2023-01-13T10:23:44.323Z,934.48
2023-01-13T10:24:45.266Z,934.47
2023-01-13T10:25:45.533Z,934.44
2023-01-13T10:26:46.184Z,934.43
2023-01-13T10:27:46.404Z,934.42
2023-01-13T10:28:46.786Z,934.39
2023-01-13T10:29:47.570Z,934.45
2023-01-13T10:30:48.099Z,934.44
2023-01-13T10:31:48.831Z,934.32
2023-01-13T10:32:49.813Z,934.34
2023-01-13T10:33:50.753Z,934.3
2023-01-13T10:34:51.352Z,934.31
2023-01-13T10:35:51.857Z,934.4
2023-01-13T10:36:52.403Z,934.44
2023-01-13T10:37:53.387Z,934.42
2023-01-13T10:38:54.003Z,934.5
2023-01-13T10:39:54.236Z,934.51
2023-01-13T10:40:54.788Z,934.55
2023-01-13T10:41:55.003Z,934.51
2023-01-13T10:42:55.281Z,934.6
2023-01-13T10:43:55.736Z,934.63
2023-01-13T10:44:56.655Z,934.61
2023-01-13T10:45:57.013Z,934.62
2023-01-13T10:46:57.438Z,934.61
2023-01-13T10:47:58.434Z,934.63
2023-01-13T10:48:59.107Z,934.66
2023-01-13T10:49:59.686Z,934.7
2023-01-13T10:50:59.917Z,934.75
2023-01-13T10:52:00.263Z,934.72
2023-01-13T10:53:00.387Z,934.68
2023-01-13T10:54:00.980Z,934.71
2023-01-13T10:55:01.551Z,934.69
2023-01-13T10:56:02.098Z,934.71
2023-01-13T10:57:02.767Z,934.63
2023-01-13T10:58:03.069Z,934.71
2023-01-13T10:59:03.477Z,934.67
2023-01-13T11:00:04.450Z,934.65
2023-01-13T11:01:04.965Z,934.72
2023-01-13T11:02:19.772Z,934.66
2023-01-13T11:03:05.489Z,934.74
2023-01-13T11:04:05.822Z,934.69
2023-01-13T11:05:06.646Z,934.7
2023-01-13T11:06:07.360Z,934.75
2023-01-13T11:07:07.728Z,934.68
2023-01-13T11:08:08.435Z,934.71
2023-01-13T11:09:09.154Z,934.79
2023-01-13T11:10:09.704Z,934.73
2023-01-13T11:11:10.643Z,934.8
2023-01-13T11:12:10.889Z,934.74
2023-01-13T11:13:11.124Z,934.77
2023-01-13T11:14:11.687Z,934.74
2023-01-13T11:15:12.621Z,934.76
2023-01-13T11:16:13.343Z,934.77
2023-01-13T11:17:13.972Z,934.67
2023-01-13T11:18:14.256Z,934.74
2023-01-13T11:19:14.684Z,934.68
2023-01-13T11:20:15.282Z,934.73
2023-01-13T11:21:16.249Z,934.68
2023-01-13T11:22:16.504Z,934.7
2023-01-13T11:23:17.457Z,934.75
2023-01-13T11:24:18.393Z,934.77
2023-01-13T11:25:19.109Z,934.74
2023-01-13T11:26:19.367Z,934.64
2023-01-13T11:27:20.012Z,934.56
2023-01-13T11:28:20.938Z,934.55
2023-01-13T11:29:21.602Z,934.57
2023-01-13T11:30:22.520Z,934.65
2023-01-13T11:31:22.798Z,934.71
2023-01-13T11:32:23.388Z,934.77
2023-01-13T11:33:24.352Z,934.8
2023-01-13T11:34:24.580Z,934.79
2023-01-13T11:35:25.236Z,934.85
2023-01-13T11:36:25.717Z,934.87
2023-01-13T11:37:26.633Z,934.85
2023-01-13T11:38:27.571Z,934.82
2023-01-13T11:39:28.327Z,934.67
2023-01-13T11:40:28.601Z,934.69
2023-01-13T11:41:29.636Z,934.62
2023-01-13T11:42:30.163Z,934.61
2023-01-13T11:43:30.451Z,934.62
2023-01-13T11:44:30.679Z,934.65
2023-01-13T11:45:31.218Z,934.62
2023-01-13T11:46:32.269Z,934.57
2023-01-13T11:47:33.013Z,934.58
2023-01-13T11:48:33.695Z,934.56
2023-01-13T11:49:34.477Z,934.56
2023-01-13T11:50:35.067Z,934.59
2023-01-13T11:51:35.699Z,934.57
2023-01-13T11:52:35.936Z,934.61
2023-01-13T11:53:36.195Z,934.61
2023-01-13T11:54:37.135Z,934.65
2023-01-13T11:55:37.364Z,934.66
2023-01-13T11:56:38.311Z,934.64
2023-01-13T11:57:38.529Z,934.65
2023-01-13T11:58:49.913Z,934.61
2023-01-13T11:59:38.011Z,934.59
2023-01-13T12:00:38.530Z,934.49
2023-01-13T12:01:39.691Z,934.47
2023-01-13T12:02:40.155Z,934.53
2023-01-13T12:03:40.690Z,934.47
2023-01-13T12:04:40.953Z,934.56
2023-01-13T12:05:41.629Z,934.5
2023-01-13T12:06:41.864Z,934.53
2023-01-13T12:07:42.393Z,934.56
2023-01-13T12:08:42.881Z,934.49
2023-01-13T12:09:43.796Z,934.5
2023-01-13T12:10:44.390Z,934.59
2023-01-13T12:11:44.899Z,934.54
2023-01-13T12:12:45.207Z,934.47
2023-01-13T12:13:45.446Z,934.49
2023-01-13T12:14:46.414Z,934.48
2023-01-13T12:15:46.768Z,934.42
2023-01-13T12:16:47.739Z,934.44
2023-01-13T12:17:48.071Z,934.37
2023-01-13T12:18:48.326Z,934.35
2023-01-13T12:19:48.653Z,934.4
2023-01-13T12:20:49.295Z,934.36
2023-01-13T12:21:49.810Z,934.34
2023-01-13T12:22:50.062Z,934.32
2023-01-13T12:23:50.285Z,934.36
2023-01-13T12:24:50.802Z,934.35
2023-01-13T12:25:51.478Z,934.34
2023-01-13T12:26:51.895Z,934.43
2023-01-13T12:27:52.855Z,934.46
2023-01-13T12:28:53.861Z,934.48
2023-01-13T12:29:54.682Z,934.47
2023-01-13T12:30:55.196Z,934.52
2023-01-13T12:31:55.523Z,934.55
2023-01-13T12:32:55.989Z,934.5
2023-01-13T12:33:56.995Z,934.45
2023-01-13T12:34:57.997Z,934.46
2023-01-13T12:35:58.424Z,934.45
2023-01-13T12:36:59.401Z,934.61
2023-01-13T12:37:59.862Z,934.38
2023-01-13T12:39:00.133Z,934.53